sensor_id;sensor_type;location;lat;lon;timestamp;P1;durP1;ratioP1;P2;durP2;ratioP2
25581;SDS011;13462;50.764;4.332;2023-08-08T00:01:50;8.00;;;4.80;;
25581;SDS011;13462;50.764;4.332;2023-08-08T00:04:16;11.30;;;5.35;;
25581;SDS011;13462;50.764;4.332;2023-08-08T00:06:41;10.25;;;5.10;;
25581;SDS011;13462;50.764;4.332;2023-08-08T00:09:07;10.77;;;5.13;;
25581;SDS011;13462;50.764;4.332;2023-08-08T00:11:32;15.23;;;5.38;;
25581;SDS011;13462;50.764;4.332;2023-08-08T00:13:58;9.95;;;5.60;;
25581;SDS011;13462;50.764;4.332;2023-08-08T00:16:24;14.32;;;5.53;;
25581;SDS011;13462;50.764;4.332;2023-08-08T00:18:49;16.00;;;5.65;;
25581;SDS011;13462;50.764;4.332;2023-08-08T00:21:18;10.73;;;6.22;;
25581;SDS011;13462;50.764;4.332;2023-08-08T00:23:46;12.38;;;5.78;;
25581;SDS011;13462;50.764;4.332;2023-08-08T00:26:12;15.85;;;7.05;;
25581;SDS011;13462;50.764;4.332;2023-08-08T00:28:38;9.80;;;5.78;;
25581;SDS011;13462;50.764;4.332;2023-08-08T00:31:04;11.43;;;6.18;;
25581;SDS011;13462;50.764;4.332;2023-08-08T00:33:29;9.07;;;5.22;;
25581;SDS011;13462;50.764;4.332;2023-08-08T00:35:55;13.23;;;6.30;;
25581;SDS011;13462;50.764;4.332;2023-08-08T00:38:21;15.57;;;6.10;;
25581;SDS011;13462;50.764;4.332;2023-08-08T00:40:46;11.57;;;5.70;;
25581;SDS011;13462;50.764;4.332;2023-08-08T00:43:12;14.18;;;6.20;;
25581;SDS011;13462;50.764;4.332;2023-08-08T00:45:38;10.85;;;5.95;;
25581;SDS011;13462;50.764;4.332;2023-08-08T00:48:06;15.35;;;6.63;;
25581;SDS011;13462;50.764;4.332;2023-08-08T00:50:32;15.10;;;6.05;;
25581;SDS011;13462;50.764;4.332;2023-08-08T00:52:58;12.75;;;5.97;;
25581;SDS011;13462;50.764;4.332;2023-08-08T00:55:24;11.02;;;6.13;;
25581;SDS011;13462;50.764;4.332;2023-08-08T00:57:49;15.70;;;7.00;;
25581;SDS011;13462;50.764;4.332;2023-08-08T01:00:15;12.43;;;6.78;;
25581;SDS011;13462;50.764;4.332;2023-08-08T01:02:41;14.45;;;6.93;;
25581;SDS011;13462;50.764;4.332;2023-08-08T01:05:07;13.15;;;6.47;;
25581;SDS011;13462;50.764;4.332;2023-08-08T01:10:24;16.27;;;6.47;;
25581;SDS011;13462;50.764;4.332;2023-08-08T01:12:53;15.80;;;6.65;;
25581;SDS011;13462;50.764;4.332;2023-08-08T01:15:25;13.63;;;5.70;;
25581;SDS011;13462;50.764;4.332;2023-08-08T01:17:51;14.20;;;6.43;;
25581;SDS011;13462;50.764;4.332;2023-08-08T01:20:18;12.30;;;6.15;;
25581;SDS011;13462;50.764;4.332;2023-08-08T01:25:25;17.10;;;7.20;;
25581;SDS011;13462;50.764;4.332;2023-08-08T01:27:50;15.88;;;7.13;;
25581;SDS011;13462;50.764;4.332;2023-08-08T01:30:16;13.60;;;7.07;;
25581;SDS011;13462;50.764;4.332;2023-08-08T01:32:41;15.00;;;6.80;;
25581;SDS011;13462;50.764;4.332;2023-08-08T01:35:07;18.63;;;7.13;;
25581;SDS011;13462;50.764;4.332;2023-08-08T01:37:38;15.45;;;6.28;;
25581;SDS011;13462;50.764;4.332;2023-08-08T01:40:13;20.17;;;6.97;;
25581;SDS011;13462;50.764;4.332;2023-08-08T01:42:43;15.85;;;6.68;;
25581;SDS011;13462;50.764;4.332;2023-08-08T01:45:11;19.20;;;7.82;;
25581;SDS011;13462;50.764;4.332;2023-08-08T01:47:37;22.42;;;7.60;;
25581;SDS011;13462;50.764;4.332;2023-08-08T01:50:03;22.00;;;7.15;;
25581;SDS011;13462;50.764;4.332;2023-08-08T01:52:29;21.73;;;7.75;;
25581;SDS011;13462;50.764;4.332;2023-08-08T01:54:54;21.95;;;7.30;;
25581;SDS011;13462;50.764;4.332;2023-08-08T01:57:20;12.18;;;6.30;;
25581;SDS011;13462;50.764;4.332;2023-08-08T01:59:47;11.50;;;6.40;;
25581;SDS011;13462;50.764;4.332;2023-08-08T02:02:13;17.50;;;6.57;;
25581;SDS011;13462;50.764;4.332;2023-08-08T02:04:40;14.25;;;6.82;;
25581;SDS011;13462;50.764;4.332;2023-08-08T02:07:05;16.80;;;7.85;;
25581;SDS011;13462;50.764;4.332;2023-08-08T02:09:31;16.73;;;6.65;;
25581;SDS011;13462;50.764;4.332;2023-08-08T02:11:56;15.60;;;6.95;;
25581;SDS011;13462;50.764;4.332;2023-08-08T02:14:22;24.15;;;7.72;;
25581;SDS011;13462;50.764;4.332;2023-08-08T02:16:48;15.93;;;6.75;;
25581;SDS011;13462;50.764;4.332;2023-08-08T02:19:13;15.32;;;7.55;;
25581;SDS011;13462;50.764;4.332;2023-08-08T02:21:40;15.52;;;7.15;;
25581;SDS011;13462;50.764;4.332;2023-08-08T02:24:05;16.80;;;7.32;;
25581;SDS011;13462;50.764;4.332;2023-08-08T02:26:31;17.45;;;6.85;;
25581;SDS011;13462;50.764;4.332;2023-08-08T02:28:57;18.67;;;7.63;;
25581;SDS011;13462;50.764;4.332;2023-08-08T02:31:22;18.35;;;7.03;;
25581;SDS011;13462;50.764;4.332;2023-08-08T02:33:48;24.45;;;7.93;;
25581;SDS011;13462;50.764;4.332;2023-08-08T02:36:15;14.55;;;6.88;;
25581;SDS011;13462;50.764;4.332;2023-08-08T02:38:42;16.88;;;7.15;;
25581;SDS011;13462;50.764;4.332;2023-08-08T02:41:08;22.55;;;7.65;;
25581;SDS011;13462;50.764;4.332;2023-08-08T02:43:33;16.75;;;7.55;;
25581;SDS011;13462;50.764;4.332;2023-08-08T02:45:59;20.92;;;7.70;;
25581;SDS011;13462;50.764;4.332;2023-08-08T02:48:24;22.10;;;7.68;;
25581;SDS011;13462;50.764;4.332;2023-08-08T02:50:50;19.20;;;7.35;;
25581;SDS011;13462;50.764;4.332;2023-08-08T02:53:16;24.40;;;7.88;;
25581;SDS011;13462;50.764;4.332;2023-08-08T02:55:41;21.77;;;8.48;;
25581;SDS011;13462;50.764;4.332;2023-08-08T02:58:07;23.17;;;8.93;;
25581;SDS011;13462;50.764;4.332;2023-08-08T03:00:32;23.02;;;7.65;;
25581;SDS011;13462;50.764;4.332;2023-08-08T03:02:58;23.27;;;9.18;;
25581;SDS011;13462;50.764;4.332;2023-08-08T03:05:24;20.63;;;8.50;;
25581;SDS011;13462;50.764;4.332;2023-08-08T03:07:49;18.52;;;8.27;;
25581;SDS011;13462;50.764;4.332;2023-08-08T03:10:15;17.55;;;8.10;;
25581;SDS011;13462;50.764;4.332;2023-08-08T03:12:41;29.38;;;9.82;;
25581;SDS011;13462;50.764;4.332;2023-08-08T03:15:06;21.80;;;9.48;;
25581;SDS011;13462;50.764;4.332;2023-08-08T03:17:33;21.27;;;8.55;;
25581;SDS011;13462;50.764;4.332;2023-08-08T03:19:59;24.55;;;9.13;;
25581;SDS011;13462;50.764;4.332;2023-08-08T03:22:25;18.77;;;9.40;;
25581;SDS011;13462;50.764;4.332;2023-08-08T03:24:51;19.83;;;8.82;;
25581;SDS011;13462;50.764;4.332;2023-08-08T03:27:16;23.08;;;9.52;;
25581;SDS011;13462;50.764;4.332;2023-08-08T03:29:42;20.50;;;9.23;;
25581;SDS011;13462;50.764;4.332;2023-08-08T03:32:08;22.85;;;8.95;;
25581;SDS011;13462;50.764;4.332;2023-08-08T03:34:33;24.77;;;8.95;;
25581;SDS011;13462;50.764;4.332;2023-08-08T03:36:59;20.75;;;9.48;;
25581;SDS011;13462;50.764;4.332;2023-08-08T03:39:25;24.83;;;8.63;;
25581;SDS011;13462;50.764;4.332;2023-08-08T03:41:51;17.10;;;8.63;;
25581;SDS011;13462;50.764;4.332;2023-08-08T03:44:17;24.70;;;9.13;;
25581;SDS011;13462;50.764;4.332;2023-08-08T03:46:42;25.92;;;9.80;;
25581;SDS011;13462;50.764;4.332;2023-08-08T03:49:08;16.88;;;8.13;;
25581;SDS011;13462;50.764;4.332;2023-08-08T03:51:34;26.10;;;9.30;;
25581;SDS011;13462;50.764;4.332;2023-08-08T03:53:59;23.23;;;9.13;;
25581;SDS011;13462;50.764;4.332;2023-08-08T03:56:25;25.95;;;9.35;;
25581;SDS011;13462;50.764;4.332;2023-08-08T03:58:52;18.38;;;8.60;;
25581;SDS011;13462;50.764;4.332;2023-08-08T04:01:18;23.40;;;10.30;;
25581;SDS011;13462;50.764;4.332;2023-08-08T04:03:43;22.95;;;10.60;;
25581;SDS011;13462;50.764;4.332;2023-08-08T04:06:09;18.50;;;8.95;;
25581;SDS011;13462;50.764;4.332;2023-08-08T04:08:34;25.40;;;9.45;;
25581;SDS011;13462;50.764;4.332;2023-08-08T04:11:00;21.27;;;9.15;;
25581;SDS011;13462;50.764;4.332;2023-08-08T04:13:26;28.25;;;10.75;;
25581;SDS011;13462;50.764;4.332;2023-08-08T04:15:51;22.83;;;9.02;;
25581;SDS011;13462;50.764;4.332;2023-08-08T04:18:17;28.23;;;9.30;;
25581;SDS011;13462;50.764;4.332;2023-08-08T04:20:44;28.40;;;9.90;;
25581;SDS011;13462;50.764;4.332;2023-08-08T04:23:11;25.25;;;9.27;;
25581;SDS011;13462;50.764;4.332;2023-08-08T04:25:37;24.10;;;8.70;;
25581;SDS011;13462;50.764;4.332;2023-08-08T04:28:03;29.23;;;9.55;;
25581;SDS011;13462;50.764;4.332;2023-08-08T04:30:29;24.08;;;8.45;;
25581;SDS011;13462;50.764;4.332;2023-08-08T04:32:54;24.80;;;9.07;;
25581;SDS011;13462;50.764;4.332;2023-08-08T04:35:20;22.92;;;9.32;;
25581;SDS011;13462;50.764;4.332;2023-08-08T04:37:46;21.27;;;8.52;;
25581;SDS011;13462;50.764;4.332;2023-08-08T04:40:11;22.50;;;8.43;;
25581;SDS011;13462;50.764;4.332;2023-08-08T04:42:37;25.33;;;9.70;;
25581;SDS011;13462;50.764;4.332;2023-08-08T04:45:03;18.85;;;8.57;;
25581;SDS011;13462;50.764;4.332;2023-08-08T04:47:29;24.67;;;9.50;;
25581;SDS011;13462;50.764;4.332;2023-08-08T04:49:54;24.85;;;9.40;;
25581;SDS011;13462;50.764;4.332;2023-08-08T04:52:20;20.98;;;9.27;;
25581;SDS011;13462;50.764;4.332;2023-08-08T04:54:46;29.88;;;9.57;;
25581;SDS011;13462;50.764;4.332;2023-08-08T04:57:11;23.77;;;8.55;;
25581;SDS011;13462;50.764;4.332;2023-08-08T04:59:37;25.85;;;10.00;;
25581;SDS011;13462;50.764;4.332;2023-08-08T05:02:02;24.70;;;9.02;;
25581;SDS011;13462;50.764;4.332;2023-08-08T05:04:29;23.60;;;9.27;;
25581;SDS011;13462;50.764;4.332;2023-08-08T05:06:55;22.88;;;9.35;;
25581;SDS011;13462;50.764;4.332;2023-08-08T05:09:22;21.00;;;9.20;;
25581;SDS011;13462;50.764;4.332;2023-08-08T05:11:51;24.20;;;9.18;;
25581;SDS011;13462;50.764;4.332;2023-08-08T05:14:17;30.35;;;10.55;;
25581;SDS011;13462;50.764;4.332;2023-08-08T05:16:43;19.63;;;9.00;;
25581;SDS011;13462;50.764;4.332;2023-08-08T05:19:08;19.20;;;9.40;;
25581;SDS011;13462;50.764;4.332;2023-08-08T05:21:34;20.95;;;8.82;;
25581;SDS011;13462;50.764;4.332;2023-08-08T05:24:00;21.80;;;9.45;;
25581;SDS011;13462;50.764;4.332;2023-08-08T05:26:25;27.98;;;9.65;;
25581;SDS011;13462;50.764;4.332;2023-08-08T05:28:51;30.02;;;8.80;;
25581;SDS011;13462;50.764;4.332;2023-08-08T05:31:17;24.40;;;8.65;;
25581;SDS011;13462;50.764;4.332;2023-08-08T05:33:42;17.23;;;8.20;;
25581;SDS011;13462;50.764;4.332;2023-08-08T05:36:08;27.83;;;8.90;;
25581;SDS011;13462;50.764;4.332;2023-08-08T05:38:34;23.95;;;8.45;;
25581;SDS011;13462;50.764;4.332;2023-08-08T05:40:59;27.17;;;10.32;;
25581;SDS011;13462;50.764;4.332;2023-08-08T05:43:25;23.55;;;8.50;;
25581;SDS011;13462;50.764;4.332;2023-08-08T05:45:52;22.42;;;8.57;;
25581;SDS011;13462;50.764;4.332;2023-08-08T05:48:18;22.13;;;7.57;;
25581;SDS011;13462;50.764;4.332;2023-08-08T05:50:43;26.92;;;9.05;;
25581;SDS011;13462;50.764;4.332;2023-08-08T05:53:09;20.92;;;7.75;;
25581;SDS011;13462;50.764;4.332;2023-08-08T05:55:35;18.95;;;7.57;;
25581;SDS011;13462;50.764;4.332;2023-08-08T05:58:00;26.13;;;7.78;;
25581;SDS011;13462;50.764;4.332;2023-08-08T06:00:26;17.90;;;8.18;;
25581;SDS011;13462;50.764;4.332;2023-08-08T06:02:52;20.38;;;7.07;;
25581;SDS011;13462;50.764;4.332;2023-08-08T06:05:17;23.40;;;7.97;;
25581;SDS011;13462;50.764;4.332;2023-08-08T06:07:43;17.90;;;7.47;;
25581;SDS011;13462;50.764;4.332;2023-08-08T06:10:09;23.55;;;7.72;;
25581;SDS011;13462;50.764;4.332;2023-08-08T06:12:35;23.98;;;7.40;;
25581;SDS011;13462;50.764;4.332;2023-08-08T06:15:01;21.90;;;7.05;;
25581;SDS011;13462;50.764;4.332;2023-08-08T06:17:27;18.02;;;6.68;;
25581;SDS011;13462;50.764;4.332;2023-08-08T06:19:53;28.73;;;8.80;;
25581;SDS011;13462;50.764;4.332;2023-08-08T06:22:21;19.60;;;6.00;;
25581;SDS011;13462;50.764;4.332;2023-08-08T06:24:46;16.40;;;6.63;;
25581;SDS011;13462;50.764;4.332;2023-08-08T06:27:12;13.27;;;5.90;;
25581;SDS011;13462;50.764;4.332;2023-08-08T06:29:38;20.15;;;6.03;;
25581;SDS011;13462;50.764;4.332;2023-08-08T06:32:04;18.70;;;5.90;;
25581;SDS011;13462;50.764;4.332;2023-08-08T06:34:30;11.95;;;5.68;;
25581;SDS011;13462;50.764;4.332;2023-08-08T06:36:55;12.40;;;5.63;;
25581;SDS011;13462;50.764;4.332;2023-08-08T06:39:21;16.45;;;4.97;;
25581;SDS011;13462;50.764;4.332;2023-08-08T06:41:47;15.35;;;5.90;;
25581;SDS011;13462;50.764;4.332;2023-08-08T06:44:12;17.85;;;5.38;;
25581;SDS011;13462;50.764;4.332;2023-08-08T06:46:38;18.92;;;5.45;;
25581;SDS011;13462;50.764;4.332;2023-08-08T06:49:04;12.70;;;5.03;;
25581;SDS011;13462;50.764;4.332;2023-08-08T06:51:29;10.20;;;4.78;;
25581;SDS011;13462;50.764;4.332;2023-08-08T06:53:55;12.82;;;5.38;;
25581;SDS011;13462;50.764;4.332;2023-08-08T06:56:21;14.07;;;5.60;;
25581;SDS011;13462;50.764;4.332;2023-08-08T06:58:46;15.38;;;5.10;;
25581;SDS011;13462;50.764;4.332;2023-08-08T07:01:12;16.17;;;4.70;;
25581;SDS011;13462;50.764;4.332;2023-08-08T07:03:38;13.57;;;4.93;;
25581;SDS011;13462;50.764;4.332;2023-08-08T07:06:04;18.52;;;6.28;;
25581;SDS011;13462;50.764;4.332;2023-08-08T07:08:31;13.98;;;5.15;;
25581;SDS011;13462;50.764;4.332;2023-08-08T07:10:57;15.35;;;5.78;;
25581;SDS011;13462;50.764;4.332;2023-08-08T07:13:23;17.80;;;5.47;;
25581;SDS011;13462;50.764;4.332;2023-08-08T07:15:48;20.00;;;5.93;;
25581;SDS011;13462;50.764;4.332;2023-08-08T07:18:14;15.02;;;5.80;;
25581;SDS011;13462;50.764;4.332;2023-08-08T07:20:40;14.90;;;5.35;;
25581;SDS011;13462;50.764;4.332;2023-08-08T07:23:06;13.52;;;5.35;;
25581;SDS011;13462;50.764;4.332;2023-08-08T07:25:31;15.77;;;5.30;;
25581;SDS011;13462;50.764;4.332;2023-08-08T07:27:57;17.20;;;6.38;;
25581;SDS011;13462;50.764;4.332;2023-08-08T07:30:23;17.77;;;6.53;;
25581;SDS011;13462;50.764;4.332;2023-08-08T07:32:50;16.60;;;6.28;;
25581;SDS011;13462;50.764;4.332;2023-08-08T07:35:16;18.67;;;6.50;;
25581;SDS011;13462;50.764;4.332;2023-08-08T07:37:42;18.35;;;6.90;;
25581;SDS011;13462;50.764;4.332;2023-08-08T07:40:17;16.77;;;7.03;;
25581;SDS011;13462;50.764;4.332;2023-08-08T07:42:45;15.75;;;6.32;;
25581;SDS011;13462;50.764;4.332;2023-08-08T07:45:14;15.50;;;6.78;;
25581;SDS011;13462;50.764;4.332;2023-08-08T07:47:40;15.68;;;6.20;;
25581;SDS011;13462;50.764;4.332;2023-08-08T07:50:06;12.57;;;5.90;;
25581;SDS011;13462;50.764;4.332;2023-08-08T07:52:36;13.38;;;6.10;;
25581;SDS011;13462;50.764;4.332;2023-08-08T07:55:02;11.02;;;5.95;;
25581;SDS011;13462;50.764;4.332;2023-08-08T07:57:28;8.45;;;5.43;;
25581;SDS011;13462;50.764;4.332;2023-08-08T07:59:55;14.98;;;5.68;;
25581;SDS011;13462;50.764;4.332;2023-08-08T08:02:21;15.77;;;5.65;;
25581;SDS011;13462;50.764;4.332;2023-08-08T08:04:46;14.20;;;5.55;;
25581;SDS011;13462;50.764;4.332;2023-08-08T08:07:12;14.40;;;5.50;;
25581;SDS011;13462;50.764;4.332;2023-08-08T08:09:38;10.82;;;4.93;;
25581;SDS011;13462;50.764;4.332;2023-08-08T08:12:04;16.50;;;5.38;;
25581;SDS011;13462;50.764;4.332;2023-08-08T08:14:30;9.57;;;4.85;;
25581;SDS011;13462;50.764;4.332;2023-08-08T08:16:55;13.45;;;4.65;;
25581;SDS011;13462;50.764;4.332;2023-08-08T08:19:21;9.90;;;4.70;;
25581;SDS011;13462;50.764;4.332;2023-08-08T08:21:46;13.63;;;5.10;;
25581;SDS011;13462;50.764;4.332;2023-08-08T08:24:12;9.38;;;4.05;;
25581;SDS011;13462;50.764;4.332;2023-08-08T08:26:38;10.88;;;4.00;;
25581;SDS011;13462;50.764;4.332;2023-08-08T08:29:03;11.27;;;4.40;;
25581;SDS011;13462;50.764;4.332;2023-08-08T08:31:29;17.48;;;4.75;;
25581;SDS011;13462;50.764;4.332;2023-08-08T08:33:55;10.05;;;4.50;;
25581;SDS011;13462;50.764;4.332;2023-08-08T08:36:20;10.02;;;4.45;;
25581;SDS011;13462;50.764;4.332;2023-08-08T08:38:46;12.20;;;4.60;;
25581;SDS011;13462;50.764;4.332;2023-08-08T08:41:14;13.32;;;4.70;;
25581;SDS011;13462;50.764;4.332;2023-08-08T08:43:44;6.55;;;3.90;;
25581;SDS011;13462;50.764;4.332;2023-08-08T08:46:10;7.15;;;3.88;;
25581;SDS011;13462;50.764;4.332;2023-08-08T08:48:37;9.98;;;4.78;;
25581;SDS011;13462;50.764;4.332;2023-08-08T08:51:02;11.13;;;4.03;;
25581;SDS011;13462;50.764;4.332;2023-08-08T08:53:28;8.20;;;3.83;;
25581;SDS011;13462;50.764;4.332;2023-08-08T08:55:56;10.38;;;3.97;;
25581;SDS011;13462;50.764;4.332;2023-08-08T08:58:25;11.18;;;4.10;;
25581;SDS011;13462;50.764;4.332;2023-08-08T09:00:52;7.82;;;4.00;;
25581;SDS011;13462;50.764;4.332;2023-08-08T09:03:19;8.85;;;4.05;;
25581;SDS011;13462;50.764;4.332;2023-08-08T09:05:44;10.88;;;3.53;;
25581;SDS011;13462;50.764;4.332;2023-08-08T09:08:10;12.70;;;4.00;;
25581;SDS011;13462;50.764;4.332;2023-08-08T09:10:37;9.50;;;3.83;;
25581;SDS011;13462;50.764;4.332;2023-08-08T09:13:03;11.43;;;4.15;;
25581;SDS011;13462;50.764;4.332;2023-08-08T09:15:32;6.90;;;3.65;;
25581;SDS011;13462;50.764;4.332;2023-08-08T09:17:59;12.50;;;4.32;;
25581;SDS011;13462;50.764;4.332;2023-08-08T09:20:25;11.98;;;4.13;;
25581;SDS011;13462;50.764;4.332;2023-08-08T09:22:55;8.15;;;3.72;;
25581;SDS011;13462;50.764;4.332;2023-08-08T09:25:21;10.95;;;3.80;;
25581;SDS011;13462;50.764;4.332;2023-08-08T09:27:48;7.88;;;4.20;;
25581;SDS011;13462;50.764;4.332;2023-08-08T09:30:15;13.68;;;4.50;;
25581;SDS011;13462;50.764;4.332;2023-08-08T09:32:42;11.05;;;4.35;;
25581;SDS011;13462;50.764;4.332;2023-08-08T09:35:09;10.73;;;4.00;;
25581;SDS011;13462;50.764;4.332;2023-08-08T09:37:36;9.65;;;3.75;;
25581;SDS011;13462;50.764;4.332;2023-08-08T09:40:03;11.88;;;3.63;;
25581;SDS011;13462;50.764;4.332;2023-08-08T09:42:32;8.95;;;3.60;;
25581;SDS011;13462;50.764;4.332;2023-08-08T09:45:00;10.20;;;3.30;;
25581;SDS011;13462;50.764;4.332;2023-08-08T09:47:26;10.57;;;4.07;;
25581;SDS011;13462;50.764;4.332;2023-08-08T09:49:59;9.52;;;3.83;;
25581;SDS011;13462;50.764;4.332;2023-08-08T09:52:27;9.43;;;3.78;;
25581;SDS011;13462;50.764;4.332;2023-08-08T09:54:53;11.57;;;3.83;;
25581;SDS011;13462;50.764;4.332;2023-08-08T09:57:20;7.93;;;3.78;;
25581;SDS011;13462;50.764;4.332;2023-08-08T09:59:47;11.52;;;4.05;;
25581;SDS011;13462;50.764;4.332;2023-08-08T10:02:13;10.40;;;3.20;;
25581;SDS011;13462;50.764;4.332;2023-08-08T10:04:40;8.32;;;3.35;;
25581;SDS011;13462;50.764;4.332;2023-08-08T10:07:07;8.65;;;3.50;;
25581;SDS011;13462;50.764;4.332;2023-08-08T10:09:33;7.18;;;2.83;;
25581;SDS011;13462;50.764;4.332;2023-08-08T10:11:59;8.48;;;3.17;;
25581;SDS011;13462;50.764;4.332;2023-08-08T10:14:29;8.07;;;3.38;;
25581;SDS011;13462;50.764;4.332;2023-08-08T10:16:56;12.90;;;3.78;;
25581;SDS011;13462;50.764;4.332;2023-08-08T10:19:22;8.77;;;3.33;;
25581;SDS011;13462;50.764;4.332;2023-08-08T10:21:54;10.88;;;3.50;;
25581;SDS011;13462;50.764;4.332;2023-08-08T10:24:25;7.68;;;3.45;;
25581;SDS011;13462;50.764;4.332;2023-08-08T10:26:54;11.90;;;2.60;;
25581;SDS011;13462;50.764;4.332;2023-08-08T10:29:25;10.05;;;3.00;;
25581;SDS011;13462;50.764;4.332;2023-08-08T10:31:58;9.38;;;3.40;;
25581;SDS011;13462;50.764;4.332;2023-08-08T10:34:47;7.03;;;3.10;;
25581;SDS011;13462;50.764;4.332;2023-08-08T10:37:12;4.63;;;3.03;;
25581;SDS011;13462;50.764;4.332;2023-08-08T10:39:54;8.90;;;3.28;;
25581;SDS011;13462;50.764;4.332;2023-08-08T10:42:23;8.50;;;2.67;;
25581;SDS011;13462;50.764;4.332;2023-08-08T10:44:57;8.48;;;3.17;;
25581;SDS011;13462;50.764;4.332;2023-08-08T10:47:35;8.68;;;2.80;;
25581;SDS011;13462;50.764;4.332;2023-08-08T10:50:05;7.50;;;2.97;;
25581;SDS011;13462;50.764;4.332;2023-08-08T10:52:37;9.02;;;3.22;;
25581;SDS011;13462;50.764;4.332;2023-08-08T10:55:24;7.43;;;2.78;;
25581;SDS011;13462;50.764;4.332;2023-08-08T10:58:13;8.50;;;2.53;;
25581;SDS011;13462;50.764;4.332;2023-08-08T11:00:40;3.80;;;1.98;;
25581;SDS011;13462;50.764;4.332;2023-08-08T11:03:07;4.85;;;2.30;;
25581;SDS011;13462;50.764;4.332;2023-08-08T11:05:34;4.22;;;1.98;;
25581;SDS011;13462;50.764;4.332;2023-08-08T11:08:02;5.88;;;2.45;;
25581;SDS011;13462;50.764;4.332;2023-08-08T11:10:29;4.93;;;2.10;;
25581;SDS011;13462;50.764;4.332;2023-08-08T11:13:03;7.82;;;2.13;;
25581;SDS011;13462;50.764;4.332;2023-08-08T11:15:34;5.72;;;2.50;;
25581;SDS011;13462;50.764;4.332;2023-08-08T11:18:01;10.73;;;2.97;;
25581;SDS011;13462;50.764;4.332;2023-08-08T11:20:34;6.57;;;2.30;;
25581;SDS011;13462;50.764;4.332;2023-08-08T11:23:00;8.85;;;2.47;;
25581;SDS011;13462;50.764;4.332;2023-08-08T11:25:27;8.15;;;2.30;;
25581;SDS011;13462;50.764;4.332;2023-08-08T11:27:55;4.68;;;2.03;;
25581;SDS011;13462;50.764;4.332;2023-08-08T11:30:21;5.97;;;2.35;;
25581;SDS011;13462;50.764;4.332;2023-08-08T11:32:49;3.63;;;1.75;;
25581;SDS011;13462;50.764;4.332;2023-08-08T11:35:16;5.43;;;1.80;;
25581;SDS011;13462;50.764;4.332;2023-08-08T11:37:43;5.10;;;2.15;;
25581;SDS011;13462;50.764;4.332;2023-08-08T11:40:11;6.20;;;2.17;;
25581;SDS011;13462;50.764;4.332;2023-08-08T11:42:37;4.10;;;2.10;;
25581;SDS011;13462;50.764;4.332;2023-08-08T11:45:04;2.55;;;1.80;;
25581;SDS011;13462;50.764;4.332;2023-08-08T11:47:30;3.65;;;2.17;;
25581;SDS011;13462;50.764;4.332;2023-08-08T11:50:04;4.28;;;2.30;;
25581;SDS011;13462;50.764;4.332;2023-08-08T11:52:31;3.47;;;2.22;;
25581;SDS011;13462;50.764;4.332;2023-08-08T11:55:00;3.42;;;2.33;;
25581;SDS011;13462;50.764;4.332;2023-08-08T11:57:26;6.70;;;2.50;;
25581;SDS011;13462;50.764;4.332;2023-08-08T11:59:52;5.38;;;2.17;;
25581;SDS011;13462;50.764;4.332;2023-08-08T12:02:19;10.57;;;2.40;;
25581;SDS011;13462;50.764;4.332;2023-08-08T12:04:45;4.90;;;2.47;;
25581;SDS011;13462;50.764;4.332;2023-08-08T12:07:11;5.47;;;2.30;;
25581;SDS011;13462;50.764;4.332;2023-08-08T12:09:37;4.05;;;1.70;;
25581;SDS011;13462;50.764;4.332;2023-08-08T12:12:04;5.95;;;2.00;;
25581;SDS011;13462;50.764;4.332;2023-08-08T12:14:30;4.32;;;2.22;;
25581;SDS011;13462;50.764;4.332;2023-08-08T12:17:01;7.45;;;2.85;;
25581;SDS011;13462;50.764;4.332;2023-08-08T12:19:27;7.10;;;2.53;;
25581;SDS011;13462;50.764;4.332;2023-08-08T12:21:53;6.43;;;2.20;;
25581;SDS011;13462;50.764;4.332;2023-08-08T12:24:19;5.05;;;1.90;;
25581;SDS011;13462;50.764;4.332;2023-08-08T12:26:45;5.65;;;2.20;;
25581;SDS011;13462;50.764;4.332;2023-08-08T12:29:10;7.50;;;2.50;;
25581;SDS011;13462;50.764;4.332;2023-08-08T12:31:37;3.60;;;1.85;;
25581;SDS011;13462;50.764;4.332;2023-08-08T12:34:03;7.43;;;2.30;;
25581;SDS011;13462;50.764;4.332;2023-08-08T12:36:29;4.10;;;2.00;;
25581;SDS011;13462;50.764;4.332;2023-08-08T12:38:55;4.07;;;1.75;;
25581;SDS011;13462;50.764;4.332;2023-08-08T12:41:22;3.22;;;1.90;;
25581;SDS011;13462;50.764;4.332;2023-08-08T12:43:48;3.92;;;2.15;;
25581;SDS011;13462;50.764;4.332;2023-08-08T12:46:14;4.53;;;2.10;;
25581;SDS011;13462;50.764;4.332;2023-08-08T12:48:40;8.10;;;3.95;;
25581;SDS011;13462;50.764;4.332;2023-08-08T12:51:06;3.92;;;2.88;;
25581;SDS011;13462;50.764;4.332;2023-08-08T12:53:33;4.20;;;2.22;;
25581;SDS011;13462;50.764;4.332;2023-08-08T12:55:59;6.63;;;2.55;;
25581;SDS011;13462;50.764;4.332;2023-08-08T12:58:25;3.80;;;1.90;;
25581;SDS011;13462;50.764;4.332;2023-08-08T13:00:51;4.00;;;2.15;;
25581;SDS011;13462;50.764;4.332;2023-08-08T13:03:17;3.75;;;2.20;;
25581;SDS011;13462;50.764;4.332;2023-08-08T13:05:43;2.33;;;1.80;;
25581;SDS011;13462;50.764;4.332;2023-08-08T13:08:08;4.63;;;2.38;;
25581;SDS011;13462;50.764;4.332;2023-08-08T13:10:35;4.85;;;1.88;;
25581;SDS011;13462;50.764;4.332;2023-08-08T13:13:01;3.97;;;2.35;;
25581;SDS011;13462;50.764;4.332;2023-08-08T13:15:26;6.38;;;2.00;;
25581;SDS011;13462;50.764;4.332;2023-08-08T13:17:52;3.70;;;1.77;;
25581;SDS011;13462;50.764;4.332;2023-08-08T13:20:18;5.47;;;1.70;;
25581;SDS011;13462;50.764;4.332;2023-08-08T13:22:43;2.85;;;1.52;;
25581;SDS011;13462;50.764;4.332;2023-08-08T13:25:09;4.22;;;1.60;;
25581;SDS011;13462;50.764;4.332;2023-08-08T13:27:35;3.50;;;1.83;;
25581;SDS011;13462;50.764;4.332;2023-08-08T13:30:01;2.35;;;1.67;;
25581;SDS011;13462;50.764;4.332;2023-08-08T13:32:27;3.28;;;1.73;;
25581;SDS011;13462;50.764;4.332;2023-08-08T13:34:53;3.30;;;1.52;;
25581;SDS011;13462;50.764;4.332;2023-08-08T13:37:19;3.92;;;2.05;;
25581;SDS011;13462;50.764;4.332;2023-08-08T13:39:44;2.65;;;1.90;;
25581;SDS011;13462;50.764;4.332;2023-08-08T13:42:10;5.50;;;2.03;;
25581;SDS011;13462;50.764;4.332;2023-08-08T13:44:36;3.95;;;2.20;;
25581;SDS011;13462;50.764;4.332;2023-08-08T13:47:02;3.88;;;2.00;;
25581;SDS011;13462;50.764;4.332;2023-08-08T13:49:27;4.95;;;1.95;;
25581;SDS011;13462;50.764;4.332;2023-08-08T13:51:53;3.90;;;1.70;;
25581;SDS011;13462;50.764;4.332;2023-08-08T13:54:19;2.20;;;1.67;;
25581;SDS011;13462;50.764;4.332;2023-08-08T13:56:45;3.25;;;1.70;;
25581;SDS011;13462;50.764;4.332;2023-08-08T13:59:11;2.45;;;1.92;;
25581;SDS011;13462;50.764;4.332;2023-08-08T14:01:36;3.45;;;1.83;;
25581;SDS011;13462;50.764;4.332;2023-08-08T14:04:03;3.17;;;2.05;;
25581;SDS011;13462;50.764;4.332;2023-08-08T14:06:29;2.17;;;1.73;;
25581;SDS011;13462;50.764;4.332;2023-08-08T14:08:55;2.95;;;1.75;;
25581;SDS011;13462;50.764;4.332;2023-08-08T14:11:21;3.78;;;2.00;;
25581;SDS011;13462;50.764;4.332;2023-08-08T14:13:47;4.38;;;1.50;;
25581;SDS011;13462;50.764;4.332;2023-08-08T14:16:13;4.10;;;1.92;;
25581;SDS011;13462;50.764;4.332;2023-08-08T14:18:38;3.05;;;1.95;;
25581;SDS011;13462;50.764;4.332;2023-08-08T14:21:04;5.60;;;1.90;;
25581;SDS011;13462;50.764;4.332;2023-08-08T14:23:30;6.45;;;2.03;;
25581;SDS011;13462;50.764;4.332;2023-08-08T14:25:56;4.47;;;1.85;;
25581;SDS011;13462;50.764;4.332;2023-08-08T14:28:22;2.00;;;1.80;;
25581;SDS011;13462;50.764;4.332;2023-08-08T14:30:48;2.28;;;1.80;;
25581;SDS011;13462;50.764;4.332;2023-08-08T14:33:14;3.30;;;1.65;;
25581;SDS011;13462;50.764;4.332;2023-08-08T14:35:41;5.43;;;2.13;;
25581;SDS011;13462;50.764;4.332;2023-08-08T14:38:07;3.17;;;1.60;;
25581;SDS011;13462;50.764;4.332;2023-08-08T14:40:33;5.68;;;1.92;;